Terminal Aerodrome Forecast
Issued by NWS

Home | Current Version | Previous Version | Graphics & Text | Print | Product List | Glossary Off
Versions: 1 2 3 4 5 6 7 8 9 10 11 12 13 14 15 16 17 18 19

700
FTUS41 KCLE 280313 AAB
TAFFDY
TAF AMD
KFDY 280313Z 2803/2824 15008KT P6SM BKN150
     FM280900 15008KT 6SM -SHRA OVC050
     FM281100 15010KT 4SM -SHRA BR OVC025
     FM281600 18015G22KT P6SM OVC018=

USA.gov is the U.S. government's official web portal to all federal, state and local government web resources and services.